Авиационная погода в Екатеринбурге

СКИДКИ НА СМАРТФОНЫ!

Регион: 
Погода METAR: 
USSS 190100Z VRB01MPS 9999 BKN032 10/07 Q1032 R08R/010060 R08L/220060 NOSIG RMK QFE753/1005
Время наблюдения
2022-08-19T01:00:00Z
Температура C
10.0
Точка росы
7.0
Направление ветра
0
Скорость ветра (узлы)
2
Метео видимость
6.21
Облачность
BKN
Нижняя граница облачности (футы)
3200
Явления погоды
Условия полета
VFR
Аэропорт подробнее: 
BKN – значительная (рассеянная, разорванная) облачность;

Скидки на навигаторы!